Terminal Aerodrome Forecast
Issued by NWS

Home | Current Version | Previous Version | Text Only | Print | Product List | Glossary On
Versions: 1 2 3 4 5 6 7 8 9 10 11 12 13 14 15 16
000
FTUS45 KTFX 252000 AAA
TAFCTB
TAF AMD
KCTB 252010Z 2520/2618 34014KT P6SM OVC070
      TEMPO 2520/2522 34014G30KT
     FM252200 35015KT P6SM VCSH SCT020 OVC035
      TEMPO 2522/2602 4SM -SHSN BR OVC025
     FM260200 25008KT 4SM -SN BR OVC025
     FM260900 15006KT 3/4SM -SN OVC010=

USA.gov is the U.S. government's official web portal to all federal, state and local government web resources and services.